sensor_id;sensor_type;location;lat;lon;timestamp;P1;durP1;ratioP1;P2;durP2;ratioP2
5022;SDS011;2530;47.990;7.866;2023-02-28T00:02:19;3.60;;;2.87;;
5022;SDS011;2530;47.990;7.866;2023-02-28T00:04:45;3.60;;;3.00;;
5022;SDS011;2530;47.990;7.866;2023-02-28T00:07:17;3.70;;;3.30;;
5022;SDS011;2530;47.990;7.866;2023-02-28T00:09:43;2.92;;;2.60;;
5022;SDS011;2530;47.990;7.866;2023-02-28T00:12:09;2.70;;;2.50;;
5022;SDS011;2530;47.990;7.866;2023-02-28T00:14:35;3.70;;;2.90;;
5022;SDS011;2530;47.990;7.866;2023-02-28T00:17:01;3.22;;;2.92;;
5022;SDS011;2530;47.990;7.866;2023-02-28T00:19:27;4.05;;;3.30;;
5022;SDS011;2530;47.990;7.866;2023-02-28T00:21:52;3.33;;;3.00;;
5022;SDS011;2530;47.990;7.866;2023-02-28T00:24:18;3.50;;;3.13;;
5022;SDS011;2530;47.990;7.866;2023-02-28T00:26:43;5.50;;;3.50;;
5022;SDS011;2530;47.990;7.866;2023-02-28T00:29:09;3.40;;;3.10;;
5022;SDS011;2530;47.990;7.866;2023-02-28T00:31:35;3.37;;;3.07;;
5022;SDS011;2530;47.990;7.866;2023-02-28T00:34:01;4.30;;;3.20;;
5022;SDS011;2530;47.990;7.866;2023-02-28T00:36:26;3.10;;;2.80;;
5022;SDS011;2530;47.990;7.866;2023-02-28T00:38:52;5.00;;;3.50;;
5022;SDS011;2530;47.990;7.866;2023-02-28T00:41:17;3.30;;;3.00;;
5022;SDS011;2530;47.990;7.866;2023-02-28T00:43:43;3.00;;;2.80;;
5022;SDS011;2530;47.990;7.866;2023-02-28T00:46:09;3.77;;;3.00;;
5022;SDS011;2530;47.990;7.866;2023-02-28T00:48:35;3.25;;;2.80;;
5022;SDS011;2530;47.990;7.866;2023-02-28T00:51:00;3.50;;;3.20;;
5022;SDS011;2530;47.990;7.866;2023-02-28T00:53:26;3.10;;;2.80;;
5022;SDS011;2530;47.990;7.866;2023-02-28T00:55:52;3.40;;;3.10;;
5022;SDS011;2530;47.990;7.866;2023-02-28T00:58:18;4.70;;;3.45;;
5022;SDS011;2530;47.990;7.866;2023-02-28T01:00:43;3.60;;;3.30;;
5022;SDS011;2530;47.990;7.866;2023-02-28T01:03:13;3.45;;;3.15;;
5022;SDS011;2530;47.990;7.866;2023-02-28T01:05:43;4.60;;;3.07;;
5022;SDS011;2530;47.990;7.866;2023-02-28T01:08:09;3.13;;;2.72;;
5022;SDS011;2530;47.990;7.866;2023-02-28T01:10:34;3.50;;;3.20;;
5022;SDS011;2530;47.990;7.866;2023-02-28T01:13:01;4.97;;;3.35;;
5022;SDS011;2530;47.990;7.866;2023-02-28T01:15:27;3.80;;;3.10;;
5022;SDS011;2530;47.990;7.866;2023-02-28T01:17:52;3.50;;;3.20;;
5022;SDS011;2530;47.990;7.866;2023-02-28T01:20:18;3.80;;;3.33;;
5022;SDS011;2530;47.990;7.866;2023-02-28T01:22:44;3.88;;;3.47;;
5022;SDS011;2530;47.990;7.866;2023-02-28T01:25:09;3.70;;;3.20;;
5022;SDS011;2530;47.990;7.866;2023-02-28T01:27:35;3.60;;;3.30;;
5022;SDS011;2530;47.990;7.866;2023-02-28T01:30:00;3.65;;;3.30;;
5022;SDS011;2530;47.990;7.866;2023-02-28T01:32:27;4.90;;;3.58;;
5022;SDS011;2530;47.990;7.866;2023-02-28T01:34:52;4.65;;;3.45;;
5022;SDS011;2530;47.990;7.866;2023-02-28T01:37:18;3.65;;;3.30;;
5022;SDS011;2530;47.990;7.866;2023-02-28T01:39:43;3.30;;;3.00;;
5022;SDS011;2530;47.990;7.866;2023-02-28T01:42:09;3.88;;;3.35;;
5022;SDS011;2530;47.990;7.866;2023-02-28T01:47:19;3.80;;;3.50;;
5022;SDS011;2530;47.990;7.866;2023-02-28T01:49:45;3.53;;;3.22;;
5022;SDS011;2530;47.990;7.866;2023-02-28T01:52:12;3.63;;;3.33;;
5022;SDS011;2530;47.990;7.866;2023-02-28T01:54:42;4.90;;;3.40;;
5022;SDS011;2530;47.990;7.866;2023-02-28T01:57:13;4.03;;;3.63;;
5022;SDS011;2530;47.990;7.866;2023-02-28T02:00:00;4.10;;;3.70;;
5022;SDS011;2530;47.990;7.866;2023-02-28T02:02:48;3.40;;;3.10;;
5022;SDS011;2530;47.990;7.866;2023-02-28T02:05:19;5.03;;;3.45;;
5022;SDS011;2530;47.990;7.866;2023-02-28T02:07:48;3.47;;;3.17;;
5022;SDS011;2530;47.990;7.866;2023-02-28T02:18:46;4.00;;;3.20;;
5022;SDS011;2530;47.990;7.866;2023-02-28T02:21:25;4.13;;;3.72;;
5022;SDS011;2530;47.990;7.866;2023-02-28T02:32:47;4.15;;;3.55;;
5022;SDS011;2530;47.990;7.866;2023-02-28T02:35:49;4.15;;;3.70;;
5022;SDS011;2530;47.990;7.866;2023-02-28T02:38:31;3.70;;;3.27;;
5022;SDS011;2530;47.990;7.866;2023-02-28T02:41:03;3.63;;;3.30;;
5022;SDS011;2530;47.990;7.866;2023-02-28T02:43:46;3.53;;;3.23;;
5022;SDS011;2530;47.990;7.866;2023-02-28T02:48:48;3.67;;;3.38;;
5022;SDS011;2530;47.990;7.866;2023-02-28T02:51:17;3.40;;;3.10;;
5022;SDS011;2530;47.990;7.866;2023-02-28T02:53:50;3.50;;;3.20;;
5022;SDS011;2530;47.990;7.866;2023-02-28T02:56:24;3.67;;;3.37;;
5022;SDS011;2530;47.990;7.866;2023-02-28T02:58:53;3.72;;;3.30;;
5022;SDS011;2530;47.990;7.866;2023-02-28T03:01:23;3.50;;;3.17;;
5022;SDS011;2530;47.990;7.866;2023-02-28T03:03:55;3.97;;;3.67;;
5022;SDS011;2530;47.990;7.866;2023-02-28T03:06:23;3.67;;;3.20;;
5022;SDS011;2530;47.990;7.866;2023-02-28T03:08:49;3.80;;;3.50;;
5022;SDS011;2530;47.990;7.866;2023-02-28T03:11:15;3.80;;;3.50;;
5022;SDS011;2530;47.990;7.866;2023-02-28T03:16:43;3.72;;;3.42;;
5022;SDS011;2530;47.990;7.866;2023-02-28T03:32:38;3.60;;;3.05;;
5022;SDS011;2530;47.990;7.866;2023-02-28T03:35:12;4.00;;;3.60;;
5022;SDS011;2530;47.990;7.866;2023-02-28T03:37:46;3.50;;;3.20;;
5022;SDS011;2530;47.990;7.866;2023-02-28T03:40:17;3.50;;;3.20;;
5022;SDS011;2530;47.990;7.866;2023-02-28T03:42:47;3.88;;;3.58;;
5022;SDS011;2530;47.990;7.866;2023-02-28T03:45:17;3.25;;;2.95;;
5022;SDS011;2530;47.990;7.866;2023-02-28T03:50:35;3.20;;;2.90;;
5022;SDS011;2530;47.990;7.866;2023-02-28T03:53:11;3.45;;;3.15;;
5022;SDS011;2530;47.990;7.866;2023-02-28T03:55:39;4.07;;;3.50;;
5022;SDS011;2530;47.990;7.866;2023-02-28T03:58:12;3.58;;;3.28;;
5022;SDS011;2530;47.990;7.866;2023-02-28T04:01:13;4.35;;;3.60;;
5022;SDS011;2530;47.990;7.866;2023-02-28T04:03:43;3.90;;;3.50;;
5022;SDS011;2530;47.990;7.866;2023-02-28T04:06:13;3.60;;;3.30;;
5022;SDS011;2530;47.990;7.866;2023-02-28T04:08:41;3.45;;;3.10;;
5022;SDS011;2530;47.990;7.866;2023-02-28T04:11:16;3.33;;;3.03;;
5022;SDS011;2530;47.990;7.866;2023-02-28T04:13:45;3.17;;;2.97;;
5022;SDS011;2530;47.990;7.866;2023-02-28T04:16:11;4.07;;;3.30;;
5022;SDS011;2530;47.990;7.866;2023-02-28T04:18:38;3.70;;;3.30;;
5022;SDS011;2530;47.990;7.866;2023-02-28T04:21:04;3.70;;;3.40;;
5022;SDS011;2530;47.990;7.866;2023-02-28T04:23:30;3.60;;;3.03;;
5022;SDS011;2530;47.990;7.866;2023-02-28T04:25:56;3.70;;;3.40;;
5022;SDS011;2530;47.990;7.866;2023-02-28T04:28:21;3.60;;;3.30;;
5022;SDS011;2530;47.990;7.866;2023-02-28T04:30:47;4.03;;;3.73;;
5022;SDS011;2530;47.990;7.866;2023-02-28T04:33:18;3.90;;;3.60;;
5022;SDS011;2530;47.990;7.866;2023-02-28T04:35:44;4.30;;;3.90;;
5022;SDS011;2530;47.990;7.866;2023-02-28T04:38:09;4.30;;;3.90;;
5022;SDS011;2530;47.990;7.866;2023-02-28T04:40:35;4.07;;;3.67;;
5022;SDS011;2530;47.990;7.866;2023-02-28T04:43:00;3.83;;;3.53;;
5022;SDS011;2530;47.990;7.866;2023-02-28T04:45:26;5.33;;;3.30;;
5022;SDS011;2530;47.990;7.866;2023-02-28T04:47:54;3.90;;;3.40;;
5022;SDS011;2530;47.990;7.866;2023-02-28T04:50:20;4.17;;;3.77;;
5022;SDS011;2530;47.990;7.866;2023-02-28T04:52:45;3.90;;;3.50;;
5022;SDS011;2530;47.990;7.866;2023-02-28T04:55:11;3.75;;;3.45;;
5022;SDS011;2530;47.990;7.866;2023-02-28T04:57:37;4.03;;;3.63;;
5022;SDS011;2530;47.990;7.866;2023-02-28T05:00:02;3.75;;;3.45;;
5022;SDS011;2530;47.990;7.866;2023-02-28T05:02:33;4.45;;;4.05;;
5022;SDS011;2530;47.990;7.866;2023-02-28T05:05:00;5.63;;;4.43;;
5022;SDS011;2530;47.990;7.866;2023-02-28T05:07:25;5.37;;;3.77;;
5022;SDS011;2530;47.990;7.866;2023-02-28T05:09:51;4.50;;;4.10;;
5022;SDS011;2530;47.990;7.866;2023-02-28T05:12:16;4.67;;;4.13;;
5022;SDS011;2530;47.990;7.866;2023-02-28T05:14:42;4.10;;;3.70;;
5022;SDS011;2530;47.990;7.866;2023-02-28T05:17:09;4.20;;;3.80;;
5022;SDS011;2530;47.990;7.866;2023-02-28T05:19:35;4.18;;;3.78;;
5022;SDS011;2530;47.990;7.866;2023-02-28T05:22:00;4.47;;;4.10;;
5022;SDS011;2530;47.990;7.866;2023-02-28T05:24:26;4.47;;;4.07;;
5022;SDS011;2530;47.990;7.866;2023-02-28T05:26:52;4.30;;;3.90;;
5022;SDS011;2530;47.990;7.866;2023-02-28T05:29:18;4.70;;;4.20;;
5022;SDS011;2530;47.990;7.866;2023-02-28T05:31:44;4.70;;;4.20;;
5022;SDS011;2530;47.990;7.866;2023-02-28T05:34:09;4.87;;;4.47;;
5022;SDS011;2530;47.990;7.866;2023-02-28T05:36:37;4.30;;;3.90;;
5022;SDS011;2530;47.990;7.866;2023-02-28T05:39:04;4.72;;;4.18;;
5022;SDS011;2530;47.990;7.866;2023-02-28T05:41:32;4.30;;;4.00;;
5022;SDS011;2530;47.990;7.866;2023-02-28T05:43:57;4.60;;;4.20;;
5022;SDS011;2530;47.990;7.866;2023-02-28T05:46:24;5.10;;;4.70;;
5022;SDS011;2530;47.990;7.866;2023-02-28T05:48:50;4.57;;;4.18;;
5022;SDS011;2530;47.990;7.866;2023-02-28T05:51:16;6.30;;;4.40;;
5022;SDS011;2530;47.990;7.866;2023-02-28T05:53:42;5.82;;;4.72;;
5022;SDS011;2530;47.990;7.866;2023-02-28T05:56:08;5.85;;;4.30;;
5022;SDS011;2530;47.990;7.866;2023-02-28T05:58:34;5.43;;;4.93;;
5022;SDS011;2530;47.990;7.866;2023-02-28T06:01:00;5.10;;;4.60;;
5022;SDS011;2530;47.990;7.866;2023-02-28T06:03:43;5.10;;;4.60;;
5022;SDS011;2530;47.990;7.866;2023-02-28T06:06:08;5.28;;;4.78;;
5022;SDS011;2530;47.990;7.866;2023-02-28T06:08:34;5.30;;;4.80;;
5022;SDS011;2530;47.990;7.866;2023-02-28T06:11:02;5.65;;;4.90;;
5022;SDS011;2530;47.990;7.866;2023-02-28T06:13:28;4.70;;;4.30;;
5022;SDS011;2530;47.990;7.866;2023-02-28T06:15:54;5.00;;;4.50;;
5022;SDS011;2530;47.990;7.866;2023-02-28T06:18:19;5.77;;;4.90;;
5022;SDS011;2530;47.990;7.866;2023-02-28T06:20:51;6.10;;;4.63;;
5022;SDS011;2530;47.990;7.866;2023-02-28T06:23:19;4.80;;;4.30;;
5022;SDS011;2530;47.990;7.866;2023-02-28T06:25:45;4.97;;;4.50;;
5022;SDS011;2530;47.990;7.866;2023-02-28T06:28:11;5.20;;;4.70;;
5022;SDS011;2530;47.990;7.866;2023-02-28T06:30:37;4.80;;;4.40;;
5022;SDS011;2530;47.990;7.866;2023-02-28T06:33:04;5.28;;;4.70;;
5022;SDS011;2530;47.990;7.866;2023-02-28T06:35:30;4.82;;;4.30;;
5022;SDS011;2530;47.990;7.866;2023-02-28T06:37:56;5.20;;;4.70;;
5022;SDS011;2530;47.990;7.866;2023-02-28T06:40:21;4.65;;;4.25;;
5022;SDS011;2530;47.990;7.866;2023-02-28T06:42:47;5.30;;;4.30;;
5022;SDS011;2530;47.990;7.866;2023-02-28T06:45:12;6.60;;;4.73;;
5022;SDS011;2530;47.990;7.866;2023-02-28T06:47:39;5.27;;;4.80;;
5022;SDS011;2530;47.990;7.866;2023-02-28T06:50:06;4.88;;;4.38;;
5022;SDS011;2530;47.990;7.866;2023-02-28T06:52:36;5.00;;;4.60;;
5022;SDS011;2530;47.990;7.866;2023-02-28T06:55:03;4.80;;;4.40;;
5022;SDS011;2530;47.990;7.866;2023-02-28T06:57:30;5.10;;;4.70;;
5022;SDS011;2530;47.990;7.866;2023-02-28T06:59:57;4.97;;;4.57;;
5022;SDS011;2530;47.990;7.866;2023-02-28T07:02:29;6.03;;;4.15;;
5022;SDS011;2530;47.990;7.866;2023-02-28T07:04:54;4.50;;;4.10;;
5022;SDS011;2530;47.990;7.866;2023-02-28T07:07:20;5.30;;;4.80;;
5022;SDS011;2530;47.990;7.866;2023-02-28T07:09:46;4.47;;;4.07;;
5022;SDS011;2530;47.990;7.866;2023-02-28T07:12:12;4.50;;;4.10;;
5022;SDS011;2530;47.990;7.866;2023-02-28T07:14:37;4.10;;;3.77;;
5022;SDS011;2530;47.990;7.866;2023-02-28T07:17:03;4.60;;;4.20;;
5022;SDS011;2530;47.990;7.866;2023-02-28T07:19:28;4.00;;;3.60;;
5022;SDS011;2530;47.990;7.866;2023-02-28T07:21:54;4.60;;;4.10;;
5022;SDS011;2530;47.990;7.866;2023-02-28T07:24:20;4.80;;;4.40;;
5022;SDS011;2530;47.990;7.866;2023-02-28T07:26:46;4.20;;;3.80;;
5022;SDS011;2530;47.990;7.866;2023-02-28T07:29:11;4.88;;;4.38;;
5022;SDS011;2530;47.990;7.866;2023-02-28T07:31:37;5.20;;;4.70;;
5022;SDS011;2530;47.990;7.866;2023-02-28T07:34:04;4.50;;;4.10;;
5022;SDS011;2530;47.990;7.866;2023-02-28T07:36:30;4.97;;;4.53;;
5022;SDS011;2530;47.990;7.866;2023-02-28T07:38:55;4.67;;;4.27;;
5022;SDS011;2530;47.990;7.866;2023-02-28T07:41:22;4.97;;;4.47;;
5022;SDS011;2530;47.990;7.866;2023-02-28T07:43:49;4.50;;;4.10;;
5022;SDS011;2530;47.990;7.866;2023-02-28T07:46:19;5.20;;;4.70;;
5022;SDS011;2530;47.990;7.866;2023-02-28T07:48:46;5.70;;;5.20;;
5022;SDS011;2530;47.990;7.866;2023-02-28T07:51:12;5.80;;;4.93;;
5022;SDS011;2530;47.990;7.866;2023-02-28T07:53:37;5.25;;;4.75;;
5022;SDS011;2530;47.990;7.866;2023-02-28T07:56:03;5.40;;;4.90;;
5022;SDS011;2530;47.990;7.866;2023-02-28T07:58:29;6.07;;;5.47;;
5022;SDS011;2530;47.990;7.866;2023-02-28T08:00:55;5.25;;;4.75;;
5022;SDS011;2530;47.990;7.866;2023-02-28T08:03:21;5.40;;;4.90;;
5022;SDS011;2530;47.990;7.866;2023-02-28T08:05:48;5.72;;;5.22;;
5022;SDS011;2530;47.990;7.866;2023-02-28T08:08:14;5.45;;;5.00;;
5022;SDS011;2530;47.990;7.866;2023-02-28T08:10:40;7.75;;;5.18;;
5022;SDS011;2530;47.990;7.866;2023-02-28T08:13:06;7.33;;;5.90;;
5022;SDS011;2530;47.990;7.866;2023-02-28T08:15:32;6.55;;;5.43;;
5022;SDS011;2530;47.990;7.866;2023-02-28T08:17:58;6.10;;;5.50;;
5022;SDS011;2530;47.990;7.866;2023-02-28T08:20:24;6.20;;;5.60;;
5022;SDS011;2530;47.990;7.866;2023-02-28T08:22:49;6.38;;;5.78;;
5022;SDS011;2530;47.990;7.866;2023-02-28T08:25:15;6.97;;;6.28;;
5022;SDS011;2530;47.990;7.866;2023-02-28T08:27:41;6.35;;;5.68;;
5022;SDS011;2530;47.990;7.866;2023-02-28T08:30:07;6.30;;;5.70;;
5022;SDS011;2530;47.990;7.866;2023-02-28T08:32:35;6.25;;;5.65;;
5022;SDS011;2530;47.990;7.866;2023-02-28T08:35:00;6.50;;;5.90;;
5022;SDS011;2530;47.990;7.866;2023-02-28T08:37:27;6.13;;;5.60;;
5022;SDS011;2530;47.990;7.866;2023-02-28T08:39:53;7.03;;;6.23;;
5022;SDS011;2530;47.990;7.866;2023-02-28T08:42:19;6.90;;;6.13;;
5022;SDS011;2530;47.990;7.866;2023-02-28T08:44:45;6.45;;;5.85;;
5022;SDS011;2530;47.990;7.866;2023-02-28T08:47:10;5.80;;;5.30;;
5022;SDS011;2530;47.990;7.866;2023-02-28T08:49:36;6.90;;;6.00;;
5022;SDS011;2530;47.990;7.866;2023-02-28T08:52:02;6.95;;;6.25;;
5022;SDS011;2530;47.990;7.866;2023-02-28T08:54:28;6.53;;;5.90;;
5022;SDS011;2530;47.990;7.866;2023-02-28T08:56:56;6.50;;;5.90;;
5022;SDS011;2530;47.990;7.866;2023-02-28T08:59:21;7.15;;;5.93;;
5022;SDS011;2530;47.990;7.866;2023-02-28T09:01:47;6.40;;;5.80;;
5022;SDS011;2530;47.990;7.866;2023-02-28T09:04:13;6.63;;;6.00;;
5022;SDS011;2530;47.990;7.866;2023-02-28T09:06:39;6.45;;;5.10;;
5022;SDS011;2530;47.990;7.866;2023-02-28T09:09:05;6.30;;;5.70;;
5022;SDS011;2530;47.990;7.866;2023-02-28T09:11:32;6.30;;;5.70;;
5022;SDS011;2530;47.990;7.866;2023-02-28T09:13:59;7.38;;;6.20;;
5022;SDS011;2530;47.990;7.866;2023-02-28T09:16:25;6.35;;;5.78;;
5022;SDS011;2530;47.990;7.866;2023-02-28T09:18:51;6.40;;;5.80;;
5022;SDS011;2530;47.990;7.866;2023-02-28T09:21:18;6.10;;;5.30;;
5022;SDS011;2530;47.990;7.866;2023-02-28T09:23:44;6.38;;;5.70;;
5022;SDS011;2530;47.990;7.866;2023-02-28T09:26:15;6.70;;;6.00;;
5022;SDS011;2530;47.990;7.866;2023-02-28T09:28:42;6.32;;;5.60;;
5022;SDS011;2530;47.990;7.866;2023-02-28T09:31:15;6.50;;;5.80;;
5022;SDS011;2530;47.990;7.866;2023-02-28T09:33:45;6.32;;;5.72;;
5022;SDS011;2530;47.990;7.866;2023-02-28T09:36:11;6.88;;;6.20;;
5022;SDS011;2530;47.990;7.866;2023-02-28T09:38:37;8.25;;;6.15;;
5022;SDS011;2530;47.990;7.866;2023-02-28T09:41:08;6.97;;;6.25;;
5022;SDS011;2530;47.990;7.866;2023-02-28T09:43:38;7.43;;;6.30;;
5022;SDS011;2530;47.990;7.866;2023-02-28T09:46:12;7.57;;;6.72;;
5022;SDS011;2530;47.990;7.866;2023-02-28T09:48:46;7.07;;;6.38;;
5022;SDS011;2530;47.990;7.866;2023-02-28T09:54:13;8.30;;;6.53;;
5022;SDS011;2530;47.990;7.866;2023-02-28T10:05:11;6.50;;;5.77;;
5022;SDS011;2530;47.990;7.866;2023-02-28T10:10:36;9.07;;;5.75;;
5022;SDS011;2530;47.990;7.866;2023-02-28T10:13:16;9.63;;;6.40;;
5022;SDS011;2530;47.990;7.866;2023-02-28T10:15:52;7.03;;;6.32;;
5022;SDS011;2530;47.990;7.866;2023-02-28T10:18:23;8.50;;;6.30;;
5022;SDS011;2530;47.990;7.866;2023-02-28T10:20:52;6.40;;;5.80;;
5022;SDS011;2530;47.990;7.866;2023-02-28T10:23:21;7.43;;;6.38;;
5022;SDS011;2530;47.990;7.866;2023-02-28T10:25:59;7.03;;;6.20;;
5022;SDS011;2530;47.990;7.866;2023-02-28T10:28:30;6.10;;;5.60;;
5022;SDS011;2530;47.990;7.866;2023-02-28T10:30:56;7.35;;;6.07;;
5022;SDS011;2530;47.990;7.866;2023-02-28T10:33:24;8.10;;;6.32;;
5022;SDS011;2530;47.990;7.866;2023-02-28T10:35:55;7.68;;;6.85;;
5022;SDS011;2530;47.990;7.866;2023-02-28T10:38:22;6.57;;;5.97;;
5022;SDS011;2530;47.990;7.866;2023-02-28T10:40:49;6.93;;;6.30;;
5022;SDS011;2530;47.990;7.866;2023-02-28T10:45:55;7.18;;;6.38;;
5022;SDS011;2530;47.990;7.866;2023-02-28T11:04:05;7.05;;;6.35;;
5022;SDS011;2530;47.990;7.866;2023-02-28T11:06:41;6.70;;;5.85;;
5022;SDS011;2530;47.990;7.866;2023-02-28T11:09:20;6.20;;;5.70;;
5022;SDS011;2530;47.990;7.866;2023-02-28T11:11:50;7.13;;;6.43;;
5022;SDS011;2530;47.990;7.866;2023-02-28T11:14:22;7.25;;;6.40;;
5022;SDS011;2530;47.990;7.866;2023-02-28T11:16:50;6.70;;;6.10;;
5022;SDS011;2530;47.990;7.866;2023-02-28T11:19:22;6.82;;;6.22;;
5022;SDS011;2530;47.990;7.866;2023-02-28T11:22:00;6.57;;;5.88;;
5022;SDS011;2530;47.990;7.866;2023-02-28T11:24:28;7.10;;;6.30;;
5022;SDS011;2530;47.990;7.866;2023-02-28T11:26:58;6.68;;;6.05;;
5022;SDS011;2530;47.990;7.866;2023-02-28T11:29:26;6.70;;;6.10;;
5022;SDS011;2530;47.990;7.866;2023-02-28T11:34:37;6.90;;;6.30;;
5022;SDS011;2530;47.990;7.866;2023-02-28T11:37:05;6.78;;;6.07;;
5022;SDS011;2530;47.990;7.866;2023-02-28T11:39:35;6.50;;;5.90;;
5022;SDS011;2530;47.990;7.866;2023-02-28T11:42:11;6.73;;;6.13;;
5022;SDS011;2530;47.990;7.866;2023-02-28T11:47:48;8.05;;;6.18;;
5022;SDS011;2530;47.990;7.866;2023-02-28T11:55:53;7.15;;;6.45;;
5022;SDS011;2530;47.990;7.866;2023-02-28T12:01:19;8.02;;;6.57;;
5022;SDS011;2530;47.990;7.866;2023-02-28T12:14:54;6.57;;;5.97;;
5022;SDS011;2530;47.990;7.866;2023-02-28T12:20:33;7.32;;;6.72;;
5022;SDS011;2530;47.990;7.866;2023-02-28T12:23:36;7.67;;;6.97;;
5022;SDS011;2530;47.990;7.866;2023-02-28T12:26:14;6.70;;;6.10;;
5022;SDS011;2530;47.990;7.866;2023-02-28T12:29:00;7.47;;;6.78;;
5022;SDS011;2530;47.990;7.866;2023-02-28T12:32:04;7.70;;;6.90;;
5022;SDS011;2530;47.990;7.866;2023-02-28T12:34:37;7.20;;;6.50;;
5022;SDS011;2530;47.990;7.866;2023-02-28T12:37:17;7.10;;;6.40;;
5022;SDS011;2530;47.990;7.866;2023-02-28T12:39:49;7.30;;;6.60;;
5022;SDS011;2530;47.990;7.866;2023-02-28T12:42:26;6.93;;;6.22;;
5022;SDS011;2530;47.990;7.866;2023-02-28T12:45:02;8.30;;;7.40;;
5022;SDS011;2530;47.990;7.866;2023-02-28T12:47:33;8.15;;;7.35;;
5022;SDS011;2530;47.990;7.866;2023-02-28T12:50:02;8.30;;;7.40;;
5022;SDS011;2530;47.990;7.866;2023-02-28T12:55:35;7.70;;;7.00;;
5022;SDS011;2530;47.990;7.866;2023-02-28T12:58:14;7.45;;;6.75;;
5022;SDS011;2530;47.990;7.866;2023-02-28T13:00:59;8.90;;;8.00;;
5022;SDS011;2530;47.990;7.866;2023-02-28T13:09:29;7.13;;;6.43;;
5022;SDS011;2530;47.990;7.866;2023-02-28T13:11:55;7.60;;;6.90;;
5022;SDS011;2530;47.990;7.866;2023-02-28T13:14:29;7.50;;;6.90;;
5022;SDS011;2530;47.990;7.866;2023-02-28T13:16:59;7.95;;;7.15;;
5022;SDS011;2530;47.990;7.866;2023-02-28T13:19:40;7.60;;;6.22;;
5022;SDS011;2530;47.990;7.866;2023-02-28T13:22:15;8.02;;;7.10;;
5022;SDS011;2530;47.990;7.866;2023-02-28T13:24:48;7.10;;;6.40;;
5022;SDS011;2530;47.990;7.866;2023-02-28T13:27:32;7.90;;;7.20;;
5022;SDS011;2530;47.990;7.866;2023-02-28T13:29:59;7.47;;;6.72;;
5022;SDS011;2530;47.990;7.866;2023-02-28T13:48:30;8.02;;;7.32;;
5022;SDS011;2530;47.990;7.866;2023-02-28T13:50:49;7.75;;;6.97;;
5022;SDS011;2530;47.990;7.866;2023-02-28T13:58:36;8.00;;;7.18;;
5022;SDS011;2530;47.990;7.866;2023-02-28T14:01:28;8.63;;;7.75;;
5022;SDS011;2530;47.990;7.866;2023-02-28T14:04:08;8.20;;;7.32;;
5022;SDS011;2530;47.990;7.866;2023-02-28T14:06:39;7.83;;;7.13;;
5022;SDS011;2530;47.990;7.866;2023-02-28T14:11:46;8.50;;;7.70;;
5022;SDS011;2530;47.990;7.866;2023-02-28T14:17:01;8.82;;;7.93;;
5022;SDS011;2530;47.990;7.866;2023-02-28T14:19:31;8.20;;;7.40;;
5022;SDS011;2530;47.990;7.866;2023-02-28T14:22:02;10.70;;;7.57;;
5022;SDS011;2530;47.990;7.866;2023-02-28T14:36:06;8.32;;;7.63;;
5022;SDS011;2530;47.990;7.866;2023-02-28T14:38:57;8.40;;;7.60;;
5022;SDS011;2530;47.990;7.866;2023-02-28T14:41:39;8.10;;;7.05;;
5022;SDS011;2530;47.990;7.866;2023-02-28T14:44:19;8.10;;;7.30;;
5022;SDS011;2530;47.990;7.866;2023-02-28T14:46:45;7.88;;;7.07;;
5022;SDS011;2530;47.990;7.866;2023-02-28T14:49:24;8.90;;;8.00;;
5022;SDS011;2530;47.990;7.866;2023-02-28T14:52:03;7.95;;;7.15;;
5022;SDS011;2530;47.990;7.866;2023-02-28T14:54:39;7.70;;;7.00;;
5022;SDS011;2530;47.990;7.866;2023-02-28T14:57:06;8.00;;;7.30;;
5022;SDS011;2530;47.990;7.866;2023-02-28T14:59:45;7.78;;;7.07;;
5022;SDS011;2530;47.990;7.866;2023-02-28T15:04:56;8.82;;;7.70;;
5022;SDS011;2530;47.990;7.866;2023-02-28T15:07:23;8.30;;;7.50;;
5022;SDS011;2530;47.990;7.866;2023-02-28T15:12:49;9.02;;;8.23;;
5022;SDS011;2530;47.990;7.866;2023-02-28T15:15:16;8.95;;;8.15;;
5022;SDS011;2530;47.990;7.866;2023-02-28T15:17:46;8.57;;;7.68;;
5022;SDS011;2530;47.990;7.866;2023-02-28T15:20:16;8.35;;;7.45;;
5022;SDS011;2530;47.990;7.866;2023-02-28T15:22:43;8.20;;;7.40;;
5022;SDS011;2530;47.990;7.866;2023-02-28T15:25:11;7.82;;;7.03;;
5022;SDS011;2530;47.990;7.866;2023-02-28T15:27:44;8.60;;;7.80;;
5022;SDS011;2530;47.990;7.866;2023-02-28T15:30:17;8.60;;;7.80;;
5022;SDS011;2530;47.990;7.866;2023-02-28T15:32:44;8.55;;;7.75;;
5022;SDS011;2530;47.990;7.866;2023-02-28T15:35:27;8.03;;;7.00;;
5022;SDS011;2530;47.990;7.866;2023-02-28T15:37:55;7.88;;;7.07;;
5022;SDS011;2530;47.990;7.866;2023-02-28T15:40:23;9.45;;;8.55;;
5022;SDS011;2530;47.990;7.866;2023-02-28T15:43:06;8.87;;;8.07;;
5022;SDS011;2530;47.990;7.866;2023-02-28T15:45:46;9.10;;;8.20;;
5022;SDS011;2530;47.990;7.866;2023-02-28T15:50:40;8.52;;;7.63;;
5022;SDS011;2530;47.990;7.866;2023-02-28T15:53:10;8.45;;;7.75;;
5022;SDS011;2530;47.990;7.866;2023-02-28T15:55:42;8.85;;;8.05;;
5022;SDS011;2530;47.990;7.866;2023-02-28T15:58:08;8.52;;;7.60;;
5022;SDS011;2530;47.990;7.866;2023-02-28T16:00:37;7.85;;;7.15;;
5022;SDS011;2530;47.990;7.866;2023-02-28T16:03:22;8.80;;;8.00;;
5022;SDS011;2530;47.990;7.866;2023-02-28T16:06:07;9.45;;;8.55;;
5022;SDS011;2530;47.990;7.866;2023-02-28T16:08:53;9.13;;;8.32;;
5022;SDS011;2530;47.990;7.866;2023-02-28T16:11:20;9.90;;;8.90;;
5022;SDS011;2530;47.990;7.866;2023-02-28T16:13:46;9.32;;;8.43;;
5022;SDS011;2530;47.990;7.866;2023-02-28T16:16:19;9.40;;;8.55;;
5022;SDS011;2530;47.990;7.866;2023-02-28T16:18:47;9.30;;;8.40;;
5022;SDS011;2530;47.990;7.866;2023-02-28T16:21:13;9.35;;;8.45;;
5022;SDS011;2530;47.990;7.866;2023-02-28T16:23:39;8.85;;;8.05;;
5022;SDS011;2530;47.990;7.866;2023-02-28T16:26:04;9.33;;;8.43;;
5022;SDS011;2530;47.990;7.866;2023-02-28T16:28:31;10.23;;;8.20;;
5022;SDS011;2530;47.990;7.866;2023-02-28T16:31:00;8.60;;;7.80;;
5022;SDS011;2530;47.990;7.866;2023-02-28T16:33:29;8.77;;;7.88;;
5022;SDS011;2530;47.990;7.866;2023-02-28T16:35:55;9.77;;;8.68;;
5022;SDS011;2530;47.990;7.866;2023-02-28T16:38:21;9.73;;;8.73;;
5022;SDS011;2530;47.990;7.866;2023-02-28T16:40:48;9.60;;;8.70;;
5022;SDS011;2530;47.990;7.866;2023-02-28T16:43:15;9.00;;;8.10;;
5022;SDS011;2530;47.990;7.866;2023-02-28T16:45:44;9.80;;;8.00;;
5022;SDS011;2530;47.990;7.866;2023-02-28T16:48:14;10.30;;;7.97;;
5022;SDS011;2530;47.990;7.866;2023-02-28T16:50:41;22.73;;;9.82;;
5022;SDS011;2530;47.990;7.866;2023-02-28T16:53:08;9.70;;;7.90;;
5022;SDS011;2530;47.990;7.866;2023-02-28T16:55:34;8.17;;;7.37;;
5022;SDS011;2530;47.990;7.866;2023-02-28T16:58:00;9.00;;;8.10;;
5022;SDS011;2530;47.990;7.866;2023-02-28T17:00:27;9.18;;;8.25;;
5022;SDS011;2530;47.990;7.866;2023-02-28T17:02:55;10.47;;;8.90;;
5022;SDS011;2530;47.990;7.866;2023-02-28T17:05:21;10.00;;;9.00;;
5022;SDS011;2530;47.990;7.866;2023-02-28T17:07:48;9.20;;;8.15;;
5022;SDS011;2530;47.990;7.866;2023-02-28T17:10:24;9.90;;;8.50;;
5022;SDS011;2530;47.990;7.866;2023-02-28T17:12:51;8.75;;;7.85;;
5022;SDS011;2530;47.990;7.866;2023-02-28T17:15:17;8.73;;;7.93;;
5022;SDS011;2530;47.990;7.866;2023-02-28T17:17:44;9.63;;;8.63;;
5022;SDS011;2530;47.990;7.866;2023-02-28T17:20:12;9.40;;;8.50;;
5022;SDS011;2530;47.990;7.866;2023-02-28T17:22:41;9.90;;;8.87;;
5022;SDS011;2530;47.990;7.866;2023-02-28T17:25:08;11.00;;;9.00;;
5022;SDS011;2530;47.990;7.866;2023-02-28T17:27:34;11.15;;;9.00;;
5022;SDS011;2530;47.990;7.866;2023-02-28T17:30:01;9.35;;;8.45;;
5022;SDS011;2530;47.990;7.866;2023-02-28T17:32:28;9.33;;;8.43;;
5022;SDS011;2530;47.990;7.866;2023-02-28T17:34:53;9.90;;;8.90;;
5022;SDS011;2530;47.990;7.866;2023-02-28T17:37:19;10.20;;;8.67;;
5022;SDS011;2530;47.990;7.866;2023-02-28T17:39:44;10.23;;;9.20;;
5022;SDS011;2530;47.990;7.866;2023-02-28T17:42:10;10.00;;;9.00;;
5022;SDS011;2530;47.990;7.866;2023-02-28T17:44:35;11.50;;;9.70;;
5022;SDS011;2530;47.990;7.866;2023-02-28T17:47:02;11.18;;;10.00;;
5022;SDS011;2530;47.990;7.866;2023-02-28T17:49:28;10.65;;;9.32;;
5022;SDS011;2530;47.990;7.866;2023-02-28T17:51:54;9.90;;;8.90;;
5022;SDS011;2530;47.990;7.866;2023-02-28T17:54:19;11.17;;;9.70;;
5022;SDS011;2530;47.990;7.866;2023-02-28T17:56:45;11.63;;;9.80;;
5022;SDS011;2530;47.990;7.866;2023-02-28T17:59:11;10.63;;;9.50;;
5022;SDS011;2530;47.990;7.866;2023-02-28T18:01:37;11.35;;;9.70;;
5022;SDS011;2530;47.990;7.866;2023-02-28T18:04:03;12.30;;;10.20;;
5022;SDS011;2530;47.990;7.866;2023-02-28T18:06:41;11.05;;;9.93;;